createdAt,value
2022-12-06T00:02:17.096Z,74.57
2022-12-06T00:04:54.257Z,71.73
2022-12-06T00:07:23.378Z,78.43
2022-12-06T00:09:53.920Z,73.43
2022-12-06T00:12:23.052Z,68.77
2022-12-06T00:14:52.035Z,62.10
2022-12-06T00:17:21.386Z,60.83
2022-12-06T00:19:51.082Z,67.43
2022-12-06T00:22:20.257Z,68.40
2022-12-06T00:25:05.044Z,61.40
2022-12-06T00:27:35.094Z,61.13
2022-12-06T00:30:04.467Z,66.27
2022-12-06T00:32:33.300Z,64.37
2022-12-06T00:35:02.637Z,61.47
2022-12-06T00:37:31.550Z,63.17
2022-12-06T00:40:02.023Z,58.87
2022-12-06T00:42:31.349Z,59.43
2022-12-06T00:45:00.279Z,59.53
2022-12-06T00:47:29.752Z,61.23
2022-12-06T00:49:59.126Z,55.73
2022-12-06T00:52:28.382Z,59.10
2022-12-06T00:54:57.265Z,57.03
2022-12-06T00:57:27.486Z,59.93
2022-12-06T00:59:56.231Z,58.30
2022-12-06T01:02:25.160Z,60.27
2022-12-06T01:04:54.256Z,59.57
2022-12-06T01:07:23.592Z,60.10
2022-12-06T01:09:52.744Z,57.90
2022-12-06T01:12:21.970Z,65.43
2022-12-06T01:14:52.136Z,57.80
2022-12-06T01:17:21.401Z,56.90
2022-12-06T01:19:51.487Z,55.03
2022-12-06T01:22:20.587Z,60.00
2022-12-06T01:24:49.832Z,60.93
2022-12-06T01:27:18.787Z,56.90
2022-12-06T01:29:47.733Z,63.57
2022-12-06T01:32:18.311Z,58.03
2022-12-06T01:34:52.213Z,62.67
2022-12-06T01:37:21.100Z,60.23
2022-12-06T01:39:51.252Z,62.37
2022-12-06T01:42:21.087Z,57.93
2022-12-06T01:44:52.483Z,62.53
2022-12-06T01:47:27.850Z,58.43
2022-12-06T01:50:00.591Z,57.07
2022-12-06T01:52:34.195Z,59.90
2022-12-06T01:55:04.070Z,59.63
2022-12-06T01:57:32.883Z,56.50
2022-12-06T02:00:02.558Z,65.27
2022-12-06T02:02:40.576Z,63.47
2022-12-06T02:05:10.926Z,53.40
2022-12-06T02:07:39.993Z,63.73
2022-12-06T02:10:10.145Z,65.53
2022-12-06T02:12:39.520Z,62.77
2022-12-06T02:15:10.396Z,63.57
2022-12-06T02:17:48.165Z,70.53
2022-12-06T02:20:26.886Z,71.00
2022-12-06T02:23:17.008Z,64.57
2022-12-06T02:26:14.528Z,55.33
2022-12-06T02:29:15.804Z,63.13
2022-12-06T02:31:50.385Z,58.43
2022-12-06T02:34:22.823Z,54.30
2022-12-06T02:36:58.164Z,57.23
2022-12-06T02:39:32.322Z,56.03
2022-12-06T02:42:05.864Z,61.67
2022-12-06T02:44:39.626Z,63.27
2022-12-06T02:47:12.139Z,58.13
2022-12-06T02:49:45.085Z,54.57
2022-12-06T02:52:18.127Z,50.33
2022-12-06T02:54:49.520Z,54.27
2022-12-06T02:57:21.809Z,55.47
2022-12-06T02:59:54.399Z,61.17
2022-12-06T03:02:26.396Z,57.37
2022-12-06T03:05:10.902Z,61.20
2022-12-06T03:07:45.786Z,61.60
2022-12-06T03:10:32.374Z,55.77
2022-12-06T03:13:15.028Z,57.60
2022-12-06T03:15:51.369Z,67.00
2022-12-06T03:18:27.533Z,68.13
2022-12-06T03:20:59.851Z,80.43
2022-12-06T03:23:34.285Z,69.67
2022-12-06T03:26:05.338Z,64.63
2022-12-06T03:28:38.033Z,62.90
2022-12-06T03:31:11.876Z,55.00
2022-12-06T03:33:47.249Z,64.33
2022-12-06T03:36:18.766Z,70.00
2022-12-06T03:38:53.286Z,75.20
2022-12-06T03:41:24.548Z,77.23
2022-12-06T03:43:53.670Z,75.17
2022-12-06T03:46:28.411Z,75.97
2022-12-06T03:49:04.780Z,70.63
2022-12-06T03:51:36.339Z,78.00
2022-12-06T03:54:08.680Z,77.87
2022-12-06T03:56:38.167Z,70.43
2022-12-06T03:59:07.230Z,70.13
2022-12-06T04:01:36.234Z,77.10
2022-12-06T04:04:07.201Z,69.97
2022-12-06T04:06:36.759Z,71.00
2022-12-06T04:09:19.381Z,73.57
2022-12-06T04:11:48.858Z,70.47
2022-12-06T04:14:17.913Z,65.87
2022-12-06T04:17:04.509Z,75.50
2022-12-06T04:19:35.117Z,65.93
2022-12-06T04:22:21.341Z,74.70
2022-12-06T04:24:50.188Z,68.00
2022-12-06T04:27:36.853Z,74.13
2022-12-06T04:30:24.204Z,72.60
2022-12-06T04:33:10.738Z,75.17
2022-12-06T04:35:58.163Z,75.57
2022-12-06T04:38:42.787Z,73.33
2022-12-06T04:41:12.363Z,74.13
2022-12-06T04:43:43.072Z,66.73
2022-12-06T04:46:12.519Z,78.23
2022-12-06T04:48:41.829Z,76.60
2022-12-06T04:51:13.248Z,69.63
2022-12-06T04:53:42.547Z,69.83
2022-12-06T04:56:11.662Z,65.63
2022-12-06T04:58:40.940Z,74.13
2022-12-06T05:01:10.207Z,67.03
2022-12-06T05:03:43.991Z,74.63
2022-12-06T05:06:14.694Z,74.70
2022-12-06T05:08:44.081Z,69.47
2022-12-06T05:11:13.063Z,79.23
2022-12-06T05:13:42.804Z,76.00
2022-12-06T05:16:12.056Z,79.47
2022-12-06T05:18:43.131Z,83.07
2022-12-06T05:21:17.440Z,77.47
2022-12-06T05:23:46.414Z,86.03
2022-12-06T05:26:17.250Z,84.67
2022-12-06T05:28:47.879Z,79.00
2022-12-06T05:31:17.882Z,78.83
2022-12-06T05:33:47.129Z,83.97
2022-12-06T05:36:19.600Z,83.63
2022-12-06T05:38:51.500Z,82.30
2022-12-06T05:41:21.532Z,81.53
2022-12-06T05:43:51.027Z,78.50
2022-12-06T05:46:20.312Z,86.07
2022-12-06T05:48:49.117Z,86.30
2022-12-06T05:51:19.720Z,81.57
2022-12-06T05:53:48.870Z,64.97
2022-12-06T05:56:17.780Z,62.83
2022-12-06T05:58:46.543Z,67.63
2022-12-06T06:01:15.994Z,73.50
2022-12-06T06:03:47.758Z,64.97
2022-12-06T06:06:17.336Z,64.23
2022-12-06T06:08:47.711Z,66.13
2022-12-06T06:11:16.580Z,58.17
2022-12-06T06:13:46.100Z,60.00
2022-12-06T06:16:15.272Z,64.27
2022-12-06T06:18:44.562Z,56.97
2022-12-06T06:21:13.651Z,52.77
2022-12-06T06:23:42.796Z,54.33
2022-12-06T06:26:13.928Z,52.67
2022-12-06T06:28:43.247Z,45.73
2022-12-06T06:31:12.684Z,41.03
2022-12-06T06:33:41.834Z,39.40
2022-12-06T06:36:11.471Z,46.17
2022-12-06T06:38:41.127Z,36.27
2022-12-06T06:41:12.432Z,31.90
2022-12-06T06:43:43.051Z,44.73
2022-12-06T06:46:12.101Z,45.87
2022-12-06T06:48:41.428Z,48.60
2022-12-06T06:51:11.857Z,40.20
2022-12-06T06:53:41.182Z,46.07
2022-12-06T06:56:10.348Z,45.87
2022-12-06T06:58:39.589Z,48.33
2022-12-06T07:01:11.326Z,45.00
2022-12-06T07:03:40.607Z,48.47
2022-12-06T07:06:11.520Z,46.10
2022-12-06T07:08:41.736Z,51.17
2022-12-06T07:11:11.029Z,50.17
2022-12-06T07:13:41.294Z,35.87
2022-12-06T07:16:16.281Z,35.83
2022-12-06T07:18:47.830Z,31.23
2022-12-06T07:21:18.254Z,31.07
2022-12-06T07:23:47.466Z,31.90
2022-12-06T07:26:18.406Z,35.53
2022-12-06T07:28:48.921Z,29.70
2022-12-06T07:31:21.349Z,32.07
2022-12-06T07:33:53.743Z,36.97
2022-12-06T07:36:23.598Z,30.53
2022-12-06T07:38:54.415Z,33.10
2022-12-06T07:41:42.970Z,35.07
2022-12-06T07:44:52.649Z,30.70
2022-12-06T07:47:25.166Z,29.77
2022-12-06T07:49:55.084Z,29.03
2022-12-06T07:52:24.219Z,25.20
2022-12-06T07:54:53.151Z,32.70
2022-12-06T07:57:23.158Z,25.30
2022-12-06T07:59:52.272Z,32.17
2022-12-06T08:02:26.162Z,33.40
2022-12-06T08:04:55.614Z,27.83
2022-12-06T08:07:25.291Z,28.43
2022-12-06T08:09:55.234Z,31.20
2022-12-06T08:12:24.667Z,38.93
2022-12-06T08:14:59.373Z,37.17
2022-12-06T08:17:33.722Z,35.67
2022-12-06T08:20:03.172Z,32.47
2022-12-06T08:22:32.329Z,29.97
2022-12-06T08:25:01.714Z,27.10
2022-12-06T08:27:31.181Z,29.03
2022-12-06T08:30:00.439Z,28.53
2022-12-06T08:32:30.273Z,27.33
2022-12-06T08:35:01.014Z,29.13
2022-12-06T08:37:31.477Z,28.37
2022-12-06T08:40:00.709Z,28.53
2022-12-06T08:42:30.113Z,26.00
2022-12-06T08:44:59.251Z,26.57
2022-12-06T08:47:28.468Z,24.57
2022-12-06T08:49:59.319Z,25.70
2022-12-06T08:52:30.155Z,29.70
2022-12-06T08:54:59.402Z,30.17
2022-12-06T08:57:28.329Z,25.70
2022-12-06T08:59:57.422Z,24.33
2022-12-06T09:02:26.399Z,31.27
2022-12-06T09:04:55.434Z,24.20
2022-12-06T09:07:26.823Z,24.50
2022-12-06T09:09:58.092Z,29.63
2022-12-06T09:12:27.645Z,27.00
2022-12-06T09:14:56.764Z,22.70
2022-12-06T09:17:25.865Z,23.27
2022-12-06T09:19:54.834Z,34.20
2022-12-06T09:22:24.064Z,25.03
2022-12-06T09:24:52.919Z,21.87
2022-12-06T09:27:24.775Z,23.07
2022-12-06T09:29:53.986Z,20.83
2022-12-06T09:32:23.142Z,20.00
2022-12-06T09:34:52.698Z,22.03
2022-12-06T09:37:22.264Z,19.30
2022-12-06T09:39:53.884Z,13.37
2022-12-06T09:42:54.469Z,18.60
2022-12-06T09:45:57.834Z,13.67
2022-12-06T09:48:51.710Z,13.00
2022-12-06T09:51:28.574Z,17.10
2022-12-06T09:54:06.942Z,11.67
2022-12-06T09:56:39.252Z,16.83
2022-12-06T09:59:20.034Z,13.67
2022-12-06T10:01:57.101Z,16.73
2022-12-06T10:04:52.906Z,18.00
2022-12-06T10:07:26.595Z,14.53
2022-12-06T10:10:07.192Z,19.33
2022-12-06T10:12:47.053Z,17.80
2022-12-06T10:15:22.662Z,17.27
2022-12-06T10:18:01.492Z,20.97
2022-12-06T10:20:36.600Z,14.67
2022-12-06T10:23:10.544Z,14.87
2022-12-06T10:25:43.245Z,18.97
2022-12-06T10:28:14.982Z,19.47
2022-12-06T10:30:50.050Z,17.30
2022-12-06T10:33:27.442Z,15.57
2022-12-06T10:36:03.469Z,23.43
2022-12-06T10:38:35.235Z,15.33
2022-12-06T10:41:12.025Z,17.73
2022-12-06T10:43:49.711Z,17.37
2022-12-06T10:46:43.510Z,26.07
2022-12-06T10:49:20.819Z,18.30
2022-12-06T10:51:57.853Z,18.07
2022-12-06T10:54:30.188Z,20.57
2022-12-06T10:57:04.845Z,19.47
2022-12-06T10:59:39.137Z,25.00
2022-12-06T11:02:19.201Z,21.60
2022-12-06T11:04:49.254Z,19.50
2022-12-06T11:07:21.988Z,23.10
2022-12-06T11:09:52.558Z,21.30
2022-12-06T11:12:30.968Z,22.27
2022-12-06T11:15:05.820Z,23.27
2022-12-06T11:17:41.588Z,25.73
2022-12-06T11:20:18.468Z,19.70
2022-12-06T11:22:49.758Z,21.63
2022-12-06T11:25:24.092Z,22.40
2022-12-06T11:27:57.434Z,19.73
2022-12-06T11:30:27.722Z,19.63
2022-12-06T11:32:58.444Z,22.27
2022-12-06T11:35:29.905Z,19.10
2022-12-06T11:38:03.198Z,25.40
2022-12-06T11:40:36.284Z,24.37
2022-12-06T11:43:17.899Z,19.73
2022-12-06T11:45:48.573Z,18.47
2022-12-06T11:48:22.329Z,16.00
2022-12-06T11:50:53.570Z,15.60
2022-12-06T11:53:27.552Z,16.23
2022-12-06T11:55:58.022Z,18.13
2022-12-06T11:58:28.498Z,17.60
2022-12-06T12:00:59.238Z,20.90
2022-12-06T12:03:32.580Z,18.03
2022-12-06T12:06:33.090Z,16.70
2022-12-06T12:09:03.318Z,17.57
2022-12-06T12:11:34.072Z,15.10
2022-12-06T12:14:03.974Z,17.87
2022-12-06T12:16:36.587Z,18.17
2022-12-06T12:19:09.287Z,16.20
2022-12-06T12:21:41.943Z,18.63
2022-12-06T12:27:33.767Z,18.87
2022-12-06T12:30:32.828Z,15.47
2022-12-06T12:33:12.046Z,22.73
2022-12-06T12:35:43.961Z,12.13
2022-12-06T12:38:17.743Z,16.23
2022-12-06T12:40:48.713Z,12.80
2022-12-06T12:43:19.236Z,14.00
2022-12-06T12:46:18.073Z,16.77
2022-12-06T12:48:48.572Z,16.50
2022-12-06T12:51:45.000Z,16.07
2022-12-06T12:54:25.577Z,14.80
2022-12-06T12:56:55.021Z,13.80
2022-12-06T12:59:25.517Z,16.00
2022-12-06T13:01:56.594Z,14.10
2022-12-06T13:04:31.586Z,17.97
2022-12-06T13:07:05.251Z,15.23
2022-12-06T13:09:42.812Z,13.73
2022-12-06T13:12:15.404Z,15.20
2022-12-06T13:14:52.229Z,18.50
2022-12-06T13:17:22.976Z,20.80
2022-12-06T13:19:56.932Z,16.57
2022-12-06T13:22:29.659Z,16.53
2022-12-06T13:25:03.945Z,12.77
2022-12-06T13:27:35.868Z,18.40
2022-12-06T13:30:07.053Z,19.83
2022-12-06T13:32:42.889Z,16.03
2022-12-06T13:35:20.421Z,20.67
2022-12-06T13:37:57.308Z,16.00
2022-12-06T13:40:57.035Z,14.07
2022-12-06T13:43:59.527Z,15.83
2022-12-06T13:46:47.855Z,17.13
2022-12-06T13:49:48.786Z,19.57
2022-12-06T13:53:02.979Z,14.30
2022-12-06T13:56:01.487Z,19.13
2022-12-06T13:58:53.506Z,15.73
2022-12-06T14:01:44.000Z,18.00
2022-12-06T14:07:03.922Z,17.83
2022-12-06T14:09:44.409Z,17.73
2022-12-06T14:12:20.983Z,15.63
2022-12-06T14:14:59.571Z,20.23
2022-12-06T14:18:00.816Z,16.20
2022-12-06T14:20:28.129Z,18.20
2022-12-06T14:22:57.671Z,17.57
2022-12-06T14:25:29.852Z,19.83
2022-12-06T14:28:04.378Z,18.70
2022-12-06T14:30:33.846Z,18.40
2022-12-06T14:33:03.020Z,15.23
2022-12-06T14:35:36.289Z,21.90
2022-12-06T14:38:21.733Z,20.07
2022-12-06T14:41:10.716Z,17.77
2022-12-06T14:43:41.666Z,19.13
2022-12-06T14:46:13.738Z,20.03
2022-12-06T14:49:02.964Z,20.63
2022-12-06T14:51:41.445Z,20.23
2022-12-06T14:54:20.977Z,25.43
2022-12-06T14:56:51.145Z,21.80
2022-12-06T14:59:47.307Z,22.80
2022-12-06T15:02:24.083Z,23.63
2022-12-06T15:04:54.937Z,31.43
2022-12-06T15:07:46.049Z,20.80
2022-12-06T15:10:26.006Z,16.73
2022-12-06T15:12:55.780Z,21.97
2022-12-06T15:15:39.135Z,20.00
2022-12-06T15:18:25.008Z,18.00
2022-12-06T15:20:55.070Z,18.23
2022-12-06T15:23:41.118Z,20.37
2022-12-06T15:26:14.273Z,19.27
2022-12-06T15:28:47.674Z,18.43
2022-12-06T15:31:20.241Z,20.27
2022-12-06T15:33:50.439Z,18.87
2022-12-06T15:36:21.384Z,24.17
2022-12-06T15:38:50.658Z,18.60
2022-12-06T15:41:22.100Z,16.63
2022-12-06T15:43:53.865Z,17.20
2022-12-06T15:46:25.763Z,17.60
2022-12-06T15:48:56.137Z,15.13
2022-12-06T15:51:26.765Z,19.03
2022-12-06T15:53:58.307Z,15.97
2022-12-06T15:56:34.760Z,17.20
2022-12-06T15:59:05.565Z,16.30
2022-12-06T16:01:38.125Z,19.97
2022-12-06T16:04:14.596Z,18.90
2022-12-06T16:06:44.459Z,16.40
2022-12-06T16:09:14.600Z,18.63
2022-12-06T16:11:44.897Z,15.77
2022-12-06T16:14:17.080Z,18.23
2022-12-06T16:16:46.557Z,17.83
2022-12-06T16:19:15.499Z,19.93
2022-12-06T16:21:54.531Z,24.07
2022-12-06T16:24:23.593Z,22.17
2022-12-06T16:26:54.229Z,19.43
2022-12-06T16:29:27.031Z,18.87
2022-12-06T16:31:57.089Z,19.33
2022-12-06T16:34:28.170Z,22.70
2022-12-06T16:36:58.420Z,18.53
2022-12-06T16:39:28.940Z,21.70
2022-12-06T16:41:58.659Z,21.13
2022-12-06T16:44:29.161Z,23.17
2022-12-06T16:47:00.269Z,26.13
2022-12-06T16:49:48.791Z,29.40
2022-12-06T16:52:19.392Z,24.20
2022-12-06T16:54:48.299Z,23.23
2022-12-06T16:57:19.757Z,30.30
2022-12-06T16:59:50.638Z,30.13
2022-12-06T17:02:27.324Z,26.23
2022-12-06T17:04:56.738Z,26.47
2022-12-06T17:07:26.030Z,32.03
2022-12-06T17:09:55.373Z,28.13
2022-12-06T17:12:25.050Z,30.33
2022-12-06T17:14:55.653Z,21.93
2022-12-06T17:17:26.368Z,29.27
2022-12-06T17:20:01.789Z,27.97
2022-12-06T17:22:30.801Z,28.27
2022-12-06T17:25:00.438Z,25.67
2022-12-06T17:27:30.062Z,23.67
2022-12-06T17:30:01.694Z,28.20
2022-12-06T17:32:31.494Z,27.90
2022-12-06T17:35:00.636Z,26.20
2022-12-06T17:37:29.892Z,24.30
2022-12-06T17:39:59.128Z,25.97
2022-12-06T17:42:46.036Z,20.23
2022-12-06T17:45:20.662Z,23.43
2022-12-06T17:47:52.344Z,23.23
2022-12-06T17:50:21.409Z,22.73
2022-12-06T17:52:51.686Z,23.33
2022-12-06T17:55:20.578Z,26.83
2022-12-06T17:57:49.611Z,28.17
2022-12-06T18:00:20.905Z,24.73
2022-12-06T18:02:53.320Z,25.30
2022-12-06T18:05:25.543Z,25.00
2022-12-06T18:07:54.862Z,23.90
2022-12-06T18:10:25.111Z,21.50
2022-12-06T18:12:54.788Z,23.23
2022-12-06T18:15:43.928Z,20.27
2022-12-06T18:18:21.115Z,21.07
2022-12-06T18:20:51.290Z,18.97
2022-12-06T18:23:21.017Z,24.07
2022-12-06T18:25:53.278Z,18.63
2022-12-06T18:28:26.037Z,18.03
2022-12-06T18:30:56.888Z,18.27
2022-12-06T18:33:31.070Z,19.43
2022-12-06T18:36:00.471Z,18.63
2022-12-06T18:38:30.095Z,18.50
2022-12-06T18:41:05.371Z,22.20
2022-12-06T18:43:35.597Z,20.33
2022-12-06T18:46:10.856Z,19.60
2022-12-06T18:48:42.914Z,19.83
2022-12-06T18:51:15.831Z,19.47
2022-12-06T18:53:45.389Z,20.37
2022-12-06T18:56:17.051Z,20.00
2022-12-06T18:58:48.899Z,18.63
2022-12-06T19:01:24.323Z,20.63
2022-12-06T19:03:55.223Z,23.17
2022-12-06T19:06:26.473Z,17.70
2022-12-06T19:08:58.326Z,18.20
2022-12-06T19:11:27.765Z,19.97
2022-12-06T19:14:00.118Z,21.10
2022-12-06T19:16:37.796Z,21.57
2022-12-06T19:19:14.426Z,19.43
2022-12-06T19:21:49.083Z,19.80
2022-12-06T19:24:20.466Z,19.63
2022-12-06T19:26:53.408Z,21.63
2022-12-06T19:29:23.675Z,22.20
2022-12-06T19:31:54.940Z,20.90
2022-12-06T19:34:27.070Z,17.33
2022-12-06T19:36:57.255Z,20.17
2022-12-06T19:39:28.305Z,16.20
2022-12-06T19:42:15.881Z,19.27
2022-12-06T19:44:45.726Z,16.83
2022-12-06T19:47:16.111Z,16.03
2022-12-06T19:49:46.103Z,17.00
2022-12-06T19:52:17.745Z,14.47
2022-12-06T19:54:48.674Z,17.13
2022-12-06T19:57:21.267Z,17.17
2022-12-06T19:59:53.992Z,18.17
2022-12-06T20:02:38.789Z,15.40
2022-12-06T20:05:13.158Z,18.27
2022-12-06T20:07:42.521Z,20.07
2022-12-06T20:10:13.051Z,16.40
2022-12-06T20:12:43.453Z,20.17
2022-12-06T20:15:13.501Z,15.70
2022-12-06T20:17:44.671Z,16.77
2022-12-06T20:20:14.569Z,17.63
2022-12-06T20:22:43.841Z,17.33
2022-12-06T20:25:12.998Z,14.23
2022-12-06T20:27:54.665Z,16.87
2022-12-06T20:30:24.763Z,21.47
2022-12-06T20:32:56.642Z,18.90
2022-12-06T20:35:38.247Z,15.80
2022-12-06T20:38:19.869Z,17.43
2022-12-06T20:43:43.359Z,20.60
2022-12-06T20:46:15.718Z,21.97
2022-12-06T20:48:48.512Z,14.73
2022-12-06T20:51:20.240Z,18.20
2022-12-06T20:54:01.478Z,18.77
2022-12-06T20:56:32.954Z,19.07
2022-12-06T20:59:06.272Z,19.13
2022-12-06T21:01:40.141Z,22.80
2022-12-06T21:04:16.924Z,15.23
2022-12-06T21:06:51.848Z,20.47
2022-12-06T21:09:32.739Z,23.50
2022-12-06T21:12:04.751Z,19.03
2022-12-06T21:14:35.179Z,18.90
2022-12-06T21:17:04.955Z,19.07
2022-12-06T21:19:47.058Z,20.00
2022-12-06T21:22:18.746Z,18.30
2022-12-06T21:24:51.628Z,15.83
2022-12-06T21:27:25.068Z,16.83
2022-12-06T21:29:56.408Z,20.83
2022-12-06T21:32:28.248Z,18.43
2022-12-06T21:35:04.738Z,17.03
2022-12-06T21:37:35.567Z,19.83
2022-12-06T21:40:21.838Z,17.40
2022-12-06T21:42:59.211Z,17.47
2022-12-06T21:45:42.560Z,22.40
2022-12-06T21:48:14.043Z,15.50
2022-12-06T21:50:45.213Z,21.07
2022-12-06T21:53:15.503Z,17.90
2022-12-06T21:55:48.319Z,15.03
2022-12-06T21:58:28.385Z,15.87
2022-12-06T22:00:58.114Z,19.33
2022-12-06T22:03:29.410Z,15.83
2022-12-06T22:06:00.639Z,18.10
2022-12-06T22:08:30.438Z,19.30
2022-12-06T22:10:59.647Z,14.63
2022-12-06T22:13:42.813Z,15.27
2022-12-06T22:16:26.480Z,15.57
2022-12-06T22:19:04.109Z,17.00
2022-12-06T22:21:40.723Z,14.47
2022-12-06T22:24:11.696Z,15.47
2022-12-06T22:26:40.960Z,19.97
2022-12-06T22:29:10.168Z,19.80
2022-12-06T22:34:30.403Z,18.60
2022-12-06T22:37:05.418Z,15.60
2022-12-06T22:39:34.758Z,16.97
2022-12-06T22:42:03.634Z,14.63
2022-12-06T22:44:33.718Z,14.50
2022-12-06T22:47:04.370Z,17.57
2022-12-06T22:49:55.432Z,17.17
2022-12-06T22:52:27.305Z,22.00
2022-12-06T22:55:02.482Z,22.27
2022-12-06T22:57:54.960Z,20.23
2022-12-06T23:00:25.703Z,19.43
2022-12-06T23:02:54.845Z,19.00
2022-12-06T23:05:24.448Z,20.17
2022-12-06T23:07:57.489Z,21.67
2022-12-06T23:10:26.419Z,23.57
2022-12-06T23:12:55.556Z,23.70
2022-12-06T23:15:24.545Z,23.80
2022-12-06T23:17:53.949Z,22.03
2022-12-06T23:20:23.016Z,22.77
2022-12-06T23:22:51.900Z,17.93
2022-12-06T23:25:22.739Z,22.63
2022-12-06T23:27:51.593Z,22.00
2022-12-06T23:30:20.513Z,19.57
2022-12-06T23:32:49.785Z,20.67
2022-12-06T23:35:19.119Z,22.23
2022-12-06T23:37:48.131Z,22.47
2022-12-06T23:40:18.569Z,19.33
2022-12-06T23:42:49.171Z,22.23
2022-12-06T23:45:18.529Z,19.83
2022-12-06T23:47:47.907Z,17.17
2022-12-06T23:50:17.025Z,20.93
2022-12-06T23:52:46.114Z,18.43
2022-12-06T23:55:15.344Z,19.43
2022-12-06T23:57:44.372Z,21.37
